Terminal Aerodrome Forecast
Issued by NWS

Home | Current Version | Previous Version | Text Only | Print | Product List | Glossary On
Versions: 1 2 3 4 5 6 7 8 9 10 11 12 13 14 15 16 17 18 19 20 21 22
000
FTUS42 KJAX 061720
TAFVQQ
TAF
KVQQ 061720Z 0618/0718 29007KT P6SM SCT035
     FM062000 26008KT P6SM VCTS SCT045CB SCT150 BKN250
      TEMPO 0621/0623 VRB15G25KT 3SM TSRA BR SCT020 BKN035CB OVC090
     FM070000 18005KT P6SM VCSH SCT030 BKN090 OVC250
     FM070200 24004KT P6SM SCT150 SCT250=

USA.gov is the U.S. government's official web portal to all federal, state and local government web resources and services.